Latest Weather Observations for Larapuna (Eddystone Point)

IDT60801

Issued at 7:51 am EDT Tuesday 6 December 2022 (issued every 10 minutes, with the page automatically refreshed every 10 minutes)

About weather observations | Map of weather stations | Latest weather observations for TAS | Other Formats
Station Details ID: 092045 Name: LARAPUNA (EDDYSTONE POINT) Lat: -40.99 Lon: 148.35 Height: 19.7 m
Data from the previous 72 hours. | See also: Recent months at Larapuna (Eddystone Point)
Date/Time
EDT
Temp
°C
App
Temp
°C
Dew
Point
°C
Rel
Hum
%
Delta-T
°C
Wind Press
QNH
hPa
Press
MSL
hPa
Rain since
9am
mm
Dir  Spd
km/h
Gust
km/h
Spd
kts
Gust
kts
06/07:30am 12.6 0.4 7.5 71 2.5 S 61 74 33 40 1010.2 1010.2 0.4
06/07:03am 12.4 0.1 7.1 70 2.6 S 61 80 33 43 1010.1 1010.1 0.4
06/07:00am 12.3 -0.3 7.2 71 2.5 S 63 74 34 40 1010.2 1010.2 0.4
06/06:30am 12.3 -0.7 7.4 72 2.4 S 65 76 35 41 1010.3 1010.3 0.4
06/06:00am 12.3 -0.3 7.2 71 2.5 S 63 76 34 41 1010.2 1010.2 0.4
06/05:30am 12.4 -0.6 7.1 70 2.6 S 65 78 35 42 1010.1 1010.1 0.4
06/05:00am 12.2 -1.3 6.7 69 2.6 S 67 80 36 43 1009.9 1009.9 0.4
06/04:30am 12.3 -0.7 7.2 71 2.5 S 65 80 35 43 1009.8 1009.8 0.4
06/04:00am 12.2 -1.7 6.7 69 2.6 S 69 83 37 45 1009.6 1009.6 0.4
06/03:51am 12.2 -1.2 7.3 72 2.4 S 67 85 36 46 1009.7 1009.7 0.4
06/03:30am 12.2 -1.8 6.9 70 2.5 S 70 85 38 46 1009.6 1009.6 0.4
06/03:13am 12.4 -1.3 7.3 71 2.5 S 69 87 37 47 1009.8 1009.8 0.4
06/03:00am 12.4 -1.4 7.1 70 2.6 S 69 83 37 45 1009.9 1009.9 0.4
06/02:30am 12.4 -1.4 7.1 70 2.6 S 69 87 37 47 1009.9 1009.9 0.4
06/02:24am 12.7 -0.1 8.0 73 2.3 S 65 83 35 45 1010.2 1010.2 0.4
06/02:00am 12.5 -1.9 7.0 69 2.7 S 72 85 39 46 1010.0 1010.0 0.4
06/01:30am 12.4 -1.9 7.3 71 2.5 S 72 87 39 47 1010.0 1010.0 0.4
06/01:23am 12.7 -0.8 8.2 74 2.2 S 69 87 37 47 1010.2 1010.2 0.4
06/01:00am 12.7 -1.0 8.4 75 2.1 S 70 85 38 46 1010.5 1010.5 0.4
06/12:33am 12.3 -1.9 7.8 74 2.2 S 72 93 39 50 1010.3 1010.3 0.4
06/12:30am 12.7 -1.2 8.8 77 2.0 S 72 87 39 47 1010.4 1010.4 0.4
06/12:08am 12.6 -1.0 8.5 76 2.0 S 70 89 38 48 1010.3 1010.3 0.4
06/12:00am 12.8 -1.2 8.7 76 2.1 S 72 85 39 46 1010.5 1010.5 0.4
 
Date/Time
EDT
Temp
°C
App
Temp
°C
Dew
Point
°C
Rel
Hum
%
Delta-T
°C
Wind Press
QNH
hPa
Press
MSL
hPa
Rain since
9am
mm
Dir  Spd
km/h
Gust
km/h
Spd
kts
Gust
kts
05/11:49pm 12.8 -0.8 7.7 71 2.5 S 69 87 37 47 1010.4 1010.4 0.4
05/11:30pm 12.8 -1.8 7.5 70 2.6 S 74 91 40 49 1010.4 1010.4 0.4
05/11:02pm 12.8 -1.0 7.7 71 2.5 S 70 91 38 49 1010.4 1010.4 0.4
05/11:00pm 12.7 -1.0 7.4 70 2.6 S 69 85 37 46 1010.4 1010.4 0.4
05/10:44pm 12.9 -1.2 8.2 73 2.3 S 72 91 39 49 1010.5 1010.5 0.4
05/10:30pm 12.7 -3.3 8.0 73 2.3 S 82 95 44 51 1010.2 1010.2 0.4
05/10:00pm 12.5 -2.0 8.0 74 2.2 S 74 95 40 51 1010.3 1010.3 0.4
05/09:30pm 12.8 -2.0 8.3 74 2.2 S 76 100 41 54 1010.1 1010.1 0.4
05/09:00pm 13.2 -1.6 8.5 73 2.4 S 76 95 41 51 1009.4 1009.4 0.4
05/08:37pm 13.3 -1.2 9.4 77 2.0 S 76 95 41 51 1009.3 1009.3 0.4
05/08:30pm 13.1 -2.1 8.4 73 2.3 S 78 93 42 50 1009.0 1009.0 0.4
05/08:01pm 12.8 -1.8 9.3 79 1.8 S 76 95 41 51 1008.7 1008.7 0.4
05/08:00pm 12.7 -2.3 9.0 78 1.9 S 78 95 42 51 1008.7 1008.7 0.4
05/07:30pm 13.2 -1.3 9.5 78 1.9 S 76 95 41 51 1008.4 1008.4 0.4
05/07:18pm 13.5 -0.9 9.9 79 1.9 S 76 95 41 51 1008.4 1008.4 0.4
05/07:00pm 13.3 -2.4 9.2 76 2.1 S 82 95 44 51 1007.8 1007.8 0.4
05/06:44pm 13.3 -1.6 9.5 78 1.9 S 78 98 42 53 1007.5 1007.5 0.4
05/06:30pm 13.3 -1.0 10.3 82 1.6 S 76 91 41 49 1007.5 1007.5 0.4
05/06:09pm 13.3 -0.9 10.7 84 1.4 S 76 98 41 53 1007.2 1007.2 0.4
05/06:00pm 13.2 -0.9 10.9 86 1.2 S 76 93 41 50 1007.3 1007.3 0.4
05/05:41pm 13.2 -0.4 11.4 89 1.0 S 74 93 40 50 1007.3 1007.3 0.4
05/05:30pm 13.4 -1.1 11.1 86 1.2 S 78 95 42 51 1006.8 1006.8 0.4
05/05:14pm 13.6 -0.4 11.3 86 1.2 S 76 95 41 51 1006.9 1006.9 0.4
05/05:00pm 13.8 -0.7 11.1 84 1.4 S 78 93 42 50 1006.7 1006.7 0.4
05/04:36pm 14.3 -0.1 11.3 82 1.6 S 78 96 42 52 1006.4 1006.4 0.4
05/04:30pm 14.1 -0.9 10.7 80 1.8 S 80 96 43 52 1006.1 1006.1 0.4
05/04:00pm 15.0 0.9 11.2 78 2.0 S 76 95 41 51 1005.7 1005.7 0.4
05/03:34pm 14.3 0.7 11.3 82 1.6 S 74 93 40 50 1005.7 1005.7 0.4
05/03:30pm 14.5 1.0 11.8 84 1.5 S 74 91 40 49 1005.9 1005.9 0.4
05/03:00pm 15.8 1.9 11.8 77 2.2 S 76 95 41 51 1005.7 1005.7 0.4
05/02:36pm 15.6 1.7 11.6 77 2.2 S 76 95 41 51 1005.6 1005.6 0.4
05/02:30pm 16.6 3.7 12.6 77 2.2 S 72 89 39 48 1005.7 1005.7 0.4
05/02:06pm 15.7 2.8 12.6 82 1.7 S 72 91 39 49 1005.8 1005.8 0.4
05/02:00pm 15.5 2.2 12.3 81 1.8 S 74 91 40 49 1005.8 1005.8 0.4
05/01:31pm 15.7 2.4 12.5 81 1.8 S 74 93 40 50 1005.5 1005.5 0.4
05/01:30pm 15.7 2.0 12.5 81 1.8 S 76 93 41 50 1005.4 1005.4 0.4
05/01:00pm 14.1 0.1 12.5 90 0.9 S 78 93 42 50 1005.3 1005.3 0.4
05/12:45pm 14.0 1.6 12.9 93 0.6 S 70 89 38 48 1005.7 1005.7 0.4
05/12:30pm 14.3 2.2 13.2 93 0.6 S 69 85 37 46 1005.6 1005.6 0.4
05/12:19pm 14.5 2.1 13.0 91 0.8 S 70 89 38 48 1005.3 1005.3 0.4
05/12:00pm 15.2 3.7 13.9 92 0.7 S 67 80 36 43 1005.3 1005.3 0.4
05/11:30am 15.4 4.7 14.1 92 0.7 S 63 76 34 41 1004.9 1004.9 0.4
05/11:00am 15.4 6.8 14.1 92 0.7 SSE 52 65 28 35 1004.7 1004.7 0.4
05/10:30am 15.2 8.4 14.2 94 0.6 SSE 43 54 23 29 1004.6 1004.6 0.4
05/10:00am 14.9 8.9 14.3 96 0.3 SSE 39 52 21 28 1004.5 1004.5 0.4
05/09:30am 15.1 8.8 14.5 96 0.3 SSE 41 50 22 27 1004.5 1004.5 0.2
05/09:00am 15.2 8.8 14.4 95 0.5 SSE 41 50 22 27 1005.0 1005.0 10.0
05/08:30am 15.4 8.7 14.6 95 0.5 S 43 52 23 28 1004.9 1004.9 10.0
05/08:00am 15.4 9.9 14.8 96 0.3 S 37 44 20 24 1004.5 1004.5 10.0
05/07:30am 15.5 9.7 14.9 96 0.3 S 39 48 21 26 1003.9 1003.9 10.0
05/07:00am 15.7 10.7 15.1 96 0.3 S 35 46 19 25 1002.9 1002.9 10.0
05/06:54am 15.9 12.3 15.3 96 0.3 S 28 37 15 20 1003.0 1003.0 10.0
05/06:30am 16.0 16.1 15.4 96 0.3 NW 9 13 5 7 1002.7 1002.7 10.0
05/06:00am 15.9 15.2 15.4 97 0.3 NE 13 19 7 10 1002.2 1002.2 10.0
05/05:30am 15.7 13.2 15.2 97 0.3 ENE 22 28 12 15 1002.1 1002.1 10.0
05/05:00am 15.6 12.3 15.1 97 0.3 ENE 26 32 14 17 1001.8 1001.8 10.0
05/04:30am 15.4 12.1 14.9 97 0.3 ENE 26 30 14 16 1002.9 1002.9 10.0
05/04:00am 15.4 12.4 14.9 97 0.3 E 24 28 13 15 1002.6 1002.6 9.8
05/03:30am 15.4 13.7 14.8 96 0.3 SE 17 24 9 13 1004.3 1004.3 8.2
05/03:00am 15.2 13.8 14.6 96 0.3 SSW 15 19 8 10 1004.8 1004.8 7.8
05/02:30am 15.3 15.5 14.7 96 0.3 SW 7 9 4 5 1005.4 1005.4 5.8
05/02:00am 15.6 14.3 14.8 95 0.5 SSW 15 20 8 11 1005.1 1005.1 3.4
05/01:30am 15.3 10.4 14.3 94 0.6 S 33 43 18 23 1004.7 1004.7 3.4
05/01:29am 15.3 10.0 14.3 94 0.6 S 35 43 19 23 1004.6 1004.6 3.4
05/01:00am 15.6 9.9 14.3 92 0.7 SSW 37 43 20 23 1006.1 1006.1 0.0
05/12:30am 15.5 11.9 14.2 92 0.7 S 26 33 14 18 1004.9 1004.9 0.0
05/12:00am 15.4 12.1 14.1 92 0.7 S 24 28 13 15 1005.8 1005.8 0.0
 
Date/Time
EDT
Temp
°C
App
Temp
°C
Dew
Point
°C
Rel
Hum
%
Delta-T
°C
Wind Press
QNH
hPa
Press
MSL
hPa
Rain since
9am
mm
Dir  Spd
km/h
Gust
km/h
Spd
kts
Gust
kts
04/11:30pm 15.5 11.2 14.4 93 0.6 S 30 33 16 18 1006.4 1006.4 0.0
04/11:00pm 15.7 12.6 14.6 93 0.6 S 24 30 13 16 1006.6 1006.6 0.0
04/10:30pm 16.0 12.6 14.7 92 0.7 S 26 32 14 17 1007.6 1007.6 0.0
04/10:00pm 16.0 12.9 14.5 91 0.9 SSE 24 30 13 16 1007.8 1007.8 0.0
04/09:30pm 16.1 13.0 14.6 91 0.9 SSE 24 28 13 15 1008.2 1008.2 0.0
04/09:00pm 16.0 12.9 14.5 91 0.9 SSE 24 28 13 15 1008.1 1008.1 0.0
04/08:30pm 16.1 13.7 14.3 89 1.0 SSE 20 26 11 14 1008.2 1008.2 0.0
04/08:00pm 16.2 14.2 14.0 87 1.2 SE 17 20 9 11 1008.4 1008.4 0.0
04/07:30pm 16.5 14.8 13.6 83 1.6 SE 15 20 8 11 1008.5 1008.5 0.0
04/07:00pm 17.6 15.7 14.3 81 1.9 SSE 17 19 9 10 1008.5 1008.5 0.0
04/06:30pm 17.6 15.2 13.9 79 2.1 S 19 20 10 11 1008.8 1008.8 0.0
04/06:00pm 18.7 17.3 14.4 76 2.5 SSE 15 17 8 9 1008.7 1008.7 0.0
04/05:30pm 19.1 18.3 15.0 77 2.4 SSE 13 17 7 9 1008.7 1008.7 0.0
04/05:00pm 19.2 18.0 15.1 77 2.4 ESE 15 17 8 9 1009.0 1009.0 0.0
04/04:30pm 18.9 18.2 15.4 80 2.1 ESE 13 17 7 9 1009.6 1009.6 0.0
04/04:00pm 19.4 18.0 14.4 73 2.9 SSE 15 19 8 10 1010.1 1010.1 0.0
04/03:30pm 20.1 18.9 15.1 73 2.9 SSE 15 19 8 10 1010.5 1010.5 0.0
04/03:00pm 18.4 17.2 14.1 76 2.5 SE 13 17 7 9 1010.7 1010.7 0.0
04/02:30pm 18.0 17.2 13.9 77 2.3 SE 11 15 6 8 1011.1 1011.1 0.0
04/02:00pm 17.5 17.1 14.0 80 2.0 ESE 9 13 5 7 1011.6 1011.6 0.0
04/01:30pm 17.1 16.2 13.6 80 2.0 NE 11 13 6 7 1011.7 1011.7 0.0
04/01:00pm 15.9 14.9 13.4 85 1.4 NNE 11 13 6 7 1011.8 1011.8 0.0
04/12:30pm 15.8 14.0 13.3 85 1.4 NNE 15 20 8 11 1011.9 1011.9 0.0
04/12:00pm 15.5 13.8 13.5 88 1.1 N 15 20 8 11 1012.2 1012.2 0.0
04/11:30am 15.6 13.5 13.6 88 1.1 N 17 20 9 11 1012.4 1012.4 0.0
04/11:00am 15.4 13.3 13.6 89 1.0 NNE 17 20 9 11 1012.4 1012.4 0.0
04/10:30am 15.6 13.9 13.6 88 1.1 NNE 15 17 8 9 1012.5 1012.5 0.0
04/10:00am 16.1 15.7 14.1 88 1.1 NNE 9 11 5 6 1012.7 1012.7 0.0
04/09:30am 15.2 14.1 13.1 87 1.2 NNE 11 13 6 7 1013.0 1013.0 0.0
04/09:00am 15.0 14.1 13.7 92 0.7 NE 11 13 6 7 1013.0 1013.0 0.0
04/08:30am 14.4 13.8 13.4 94 0.6 N 9 11 5 6 1012.9 1012.9 0.0
04/08:00am 15.0 15.3 14.4 96 0.3 SSW 6 7 3 4 1012.8 1012.8 0.0
04/07:30am 14.0 13.8 13.5 97 0.3 W 7 9 4 5 1012.7 1012.7 0.0
04/07:00am 12.9 12.3 12.4 97 0.3 W 7 13 4 7 1012.8 1012.8 0.0
04/06:30am 12.3 11.5 11.8 97 0.3 W 7 9 4 5 1012.6 1012.6 0.0
04/06:00am 12.5 11.4 12.0 97 0.3 W 9 11 5 6 1012.7 1012.7 0.0
04/05:30am 12.8 11.8 12.3 97 0.3 W 9 13 5 7 1012.8 1012.8 0.0
04/05:00am 13.2 13.7 12.7 97 0.3 SW 2 6 1 3 1012.9 1012.9 0.0
04/04:30am 12.9 11.2 12.4 97 0.3 WNW 13 20 7 11 1012.7 1012.7 0.0
04/04:00am 12.7 10.2 12.2 97 0.3 WNW 17 20 9 11 1012.4 1012.4 0.0
04/03:30am 13.0 10.0 12.5 97 0.3 NW 20 22 11 12 1012.7 1012.7 0.0
04/03:00am 13.4 10.5 12.9 97 0.3 NW 20 26 11 14 1012.7 1012.7 0.0
04/02:30am 13.6 10.4 13.0 96 0.3 NW 22 26 12 14 1012.9 1012.9 0.0
04/02:00am 13.7 9.4 13.1 96 0.3 NW 28 33 15 18 1013.0 1013.0 0.0
04/01:30am 13.3 9.9 12.4 94 0.5 NW 22 28 12 15 1013.2 1013.2 0.0
04/01:00am 13.6 10.3 12.7 94 0.5 NW 22 28 12 15 1013.4 1013.4 0.0
04/12:30am 14.4 10.9 13.3 93 0.6 NNW 24 32 13 17 1013.5 1013.5 0.0
04/12:00am 14.6 11.4 13.0 90 0.9 NNW 22 30 12 16 1013.7 1013.7 0.0
 
Date/Time
EDT
Temp
°C
App
Temp
°C
Dew
Point
°C
Rel
Hum
%
Delta-T
°C
Wind Press
QNH
hPa
Press
MSL
hPa
Rain since
9am
mm
Dir  Spd
km/h
Gust
km/h
Spd
kts
Gust
kts
03/11:30pm 14.9 11.7 11.9 82 1.6 NW 20 26 11 14 1013.7 1013.7 0.0
03/11:00pm 14.7 12.2 12.4 86 1.3 NNW 17 26 9 14 1013.8 1013.8 0.0
03/10:30pm 15.1 13.2 13.0 87 1.2 NNW 15 19 8 10 1013.8 1013.8 0.0
03/10:00pm 15.4 13.9 13.1 86 1.3 NNW 13 20 7 11 1013.9 1013.9 0.0
03/09:30pm 15.7 12.4 12.8 83 1.6 NW 22 28 12 15 1013.6 1013.6 0.0
03/09:00pm 16.0 13.3 13.5 85 1.4 NNW 20 26 11 14 1013.5 1013.5 0.0
03/08:30pm 16.5 13.8 13.6 83 1.6 NW 20 28 11 15 1013.5 1013.5 0.0
03/08:00pm 16.8 14.9 14.1 84 1.5 NNW 17 24 9 13 1013.5 1013.5 0.0
03/07:30pm 16.4 13.9 14.2 87 1.3 N 20 28 11 15 1013.5 1013.5 0.0
03/07:00pm 16.9 12.5 14.0 83 1.6 N 30 35 16 19 1013.3 1013.3 0.0
03/06:30pm 16.6 12.6 14.1 85 1.4 N 28 35 15 19 1013.1 1013.1 0.0
03/06:00pm 16.8 12.3 13.9 83 1.6 N 30 39 16 21 1013.0 1013.0 0.0
03/05:30pm 17.6 12.8 14.1 80 2.0 N 32 37 17 20 1013.1 1013.1 0.0
03/05:00pm 18.0 13.2 13.9 77 2.3 N 32 37 17 20 1013.4 1013.4 0.0
03/04:30pm 17.8 12.3 13.7 77 2.3 N 35 43 19 23 1013.6 1013.6 0.0
03/04:00pm 18.2 13.0 13.5 74 2.7 N 33 41 18 22 1013.7 1013.7 0.0
03/03:30pm 19.0 13.8 13.4 70 3.2 N 33 39 18 21 1013.9 1013.9 0.0
03/03:00pm 18.3 13.2 13.2 72 2.9 N 32 41 17 22 1014.1 1014.1 0.0
03/02:30pm 18.0 13.3 13.3 74 2.7 N 30 39 16 21 1014.6 1014.6 0.0
03/02:00pm 17.8 12.9 13.7 77 2.3 N 32 39 17 21 1015.0 1015.0 0.0
03/01:30pm 17.5 12.6 13.6 78 2.2 N 32 37 17 20 1015.3 1015.3 0.0
03/01:00pm 17.4 12.7 13.1 76 2.4 N 30 39 16 21 1015.7 1015.7 0.0
03/12:30pm 17.3 11.9 12.8 75 2.5 N 33 41 18 22 1015.8 1015.8 0.0
03/12:00pm 17.1 11.5 11.6 70 3.0 N 32 39 17 21 1016.0 1016.0 0.0
03/11:30am 17.2 12.0 11.7 70 3.0 N 30 35 16 19 1016.4 1016.4 0.0
03/11:00am 17.4 12.1 11.4 68 3.3 N 30 35 16 19 1016.5 1016.5 0.0
03/10:30am 17.5 12.4 11.8 69 3.1 N 30 35 16 19 1016.6 1016.6 0.0
03/10:00am 17.7 13.8 12.2 70 3.0 N 24 30 13 16 1017.0 1017.0 0.0
03/09:30am 17.4 14.6 12.5 73 2.7 N 19 22 10 12 1017.3 1017.3 0.0
03/09:00am 16.8 15.1 12.5 76 2.4 N 13 17 7 9 1017.4 1017.4 0.0
03/08:30am 15.9 14.2 12.3 79 2.0 N 13 17 7 9 1017.5 1017.5 0.0
03/08:00am 15.4 13.4 11.4 77 2.1 NW 13 15 7 8 1017.4 1017.4 0.0

Other formats

Comma delimited format used in spreadsheet applications
http://www.bom.gov.au/fwo/IDT60801/IDT60801.94983.axf

JavaScript Object Notation format (JSON) in row-major order
http://www.bom.gov.au/fwo/IDT60801/IDT60801.94983.json

Data quality

Most of these data are generated automatically and are frequently updated. Quality checks on data are not normally performed. It is possible for incorrect values to appear. Refer to information at About Latest Weather Observations and please check the disclaimer before using these data.